sensor_id;sensor_type;location;lat;lon;timestamp;pressure;altitude;pressure_sealevel;temperature;humidity
66524;BME280;53350;52.210;5.160;2024-01-15T00:01:32;100396.22;;;5.15;74.40
66524;BME280;53350;52.210;5.160;2024-01-15T00:04:00;100393.66;;;5.15;73.86
66524;BME280;53350;52.210;5.160;2024-01-15T00:06:26;100391.97;;;5.13;74.00
66524;BME280;53350;52.210;5.160;2024-01-15T00:08:53;100383.44;;;5.11;74.11
66524;BME280;53350;52.210;5.160;2024-01-15T00:11:20;100383.44;;;5.09;73.79
66524;BME280;53350;52.210;5.160;2024-01-15T00:13:46;100373.22;;;5.06;73.73
66524;BME280;53350;52.210;5.160;2024-01-15T00:16:13;100378.31;;;5.04;74.01
66524;BME280;53350;52.210;5.160;2024-01-15T00:18:39;100371.50;;;5.02;73.67
66524;BME280;53350;52.210;5.160;2024-01-15T00:21:07;100373.22;;;5.00;73.53
66524;BME280;53350;52.210;5.160;2024-01-15T00:23:33;100369.78;;;4.98;73.68
66524;BME280;53350;52.210;5.160;2024-01-15T00:25:59;100357.84;;;4.95;73.79
66524;BME280;53350;52.210;5.160;2024-01-15T00:28:26;100351.06;;;4.91;73.69
66524;BME280;53350;52.210;5.160;2024-01-15T00:30:53;100358.72;;;4.90;73.47
66524;BME280;53350;52.210;5.160;2024-01-15T00:33:19;100356.13;;;4.86;73.30
66524;BME280;53350;52.210;5.160;2024-01-15T00:35:45;100357.00;;;4.84;73.52
66524;BME280;53350;52.210;5.160;2024-01-15T00:38:13;100351.03;;;4.83;73.44
66524;BME280;53350;52.210;5.160;2024-01-15T00:40:39;100345.91;;;4.82;73.50
66524;BME280;53350;52.210;5.160;2024-01-15T00:43:07;100347.63;;;4.83;73.06
66524;BME280;53350;52.210;5.160;2024-01-15T00:45:33;100345.06;;;4.83;72.55
66524;BME280;53350;52.210;5.160;2024-01-15T00:47:59;100348.47;;;4.79;72.79
66524;BME280;53350;52.210;5.160;2024-01-15T00:50:26;100344.19;;;4.79;72.55
66524;BME280;53350;52.210;5.160;2024-01-15T00:52:52;100355.28;;;4.78;72.70
66524;BME280;53350;52.210;5.160;2024-01-15T00:55:20;100341.66;;;4.78;72.57
66524;BME280;53350;52.210;5.160;2024-01-15T00:57:47;100340.81;;;4.77;73.14
66524;BME280;53350;52.210;5.160;2024-01-15T01:00:14;100339.97;;;4.77;72.93
66524;BME280;53350;52.210;5.160;2024-01-15T01:02:40;100330.59;;;4.77;72.91
66524;BME280;53350;52.210;5.160;2024-01-15T01:05:07;100339.09;;;4.79;72.93
66524;BME280;53350;52.210;5.160;2024-01-15T01:07:33;100333.16;;;4.82;72.05
66524;BME280;53350;52.210;5.160;2024-01-15T01:10:00;100328.06;;;4.82;72.09
66524;BME280;53350;52.210;5.160;2024-01-15T01:12:27;100334.03;;;4.82;71.61
66524;BME280;53350;52.210;5.160;2024-01-15T01:14:54;100334.03;;;4.81;71.57
66524;BME280;53350;52.210;5.160;2024-01-15T01:17:21;100334.03;;;4.81;71.25
66524;BME280;53350;52.210;5.160;2024-01-15T01:19:47;100331.47;;;4.81;70.86
66524;BME280;53350;52.210;5.160;2024-01-15T01:22:14;100332.31;;;4.81;70.97
66524;BME280;53350;52.210;5.160;2024-01-15T01:24:40;100328.94;;;4.81;70.82
66524;BME280;53350;52.210;5.160;2024-01-15T01:27:06;100324.66;;;4.80;71.05
66524;BME280;53350;52.210;5.160;2024-01-15T01:29:34;100338.25;;;4.80;71.16
66524;BME280;53350;52.210;5.160;2024-01-15T01:32:01;100326.38;;;4.81;71.28
66524;BME280;53350;52.210;5.160;2024-01-15T01:34:27;100319.56;;;4.81;71.09
66524;BME280;53350;52.210;5.160;2024-01-15T01:36:54;100325.50;;;4.80;71.43
66524;BME280;53350;52.210;5.160;2024-01-15T01:39:20;100332.31;;;4.81;71.75
66524;BME280;53350;52.210;5.160;2024-01-15T01:41:46;100324.66;;;4.83;71.94
66524;BME280;53350;52.210;5.160;2024-01-15T01:44:13;100320.41;;;4.85;72.30
66524;BME280;53350;52.210;5.160;2024-01-15T01:46:41;100322.13;;;4.87;72.39
66524;BME280;53350;52.210;5.160;2024-01-15T01:49:08;100311.06;;;4.85;72.76
66524;BME280;53350;52.210;5.160;2024-01-15T01:51:35;100315.31;;;4.88;72.35
66524;BME280;53350;52.210;5.160;2024-01-15T01:54:03;100334.03;;;4.95;72.11
66524;BME280;53350;52.210;5.160;2024-01-15T01:56:30;100324.72;;;4.97;72.59
66524;BME280;53350;52.210;5.160;2024-01-15T01:58:57;100327.28;;;5.00;71.80
66524;BME280;53350;52.210;5.160;2024-01-15T02:01:24;100340.03;;;5.03;71.76
66524;BME280;53350;52.210;5.160;2024-01-15T02:03:52;100345.97;;;5.05;72.15
66524;BME280;53350;52.210;5.160;2024-01-15T02:06:18;100350.25;;;5.01;72.98
66524;BME280;53350;52.210;5.160;2024-01-15T02:08:45;100339.97;;;4.87;73.14
66524;BME280;53350;52.210;5.160;2024-01-15T02:11:11;100341.63;;;4.76;73.42
66524;BME280;53350;52.210;5.160;2024-01-15T02:13:38;100343.34;;;4.69;74.16
66524;BME280;53350;52.210;5.160;2024-01-15T02:16:06;100338.19;;;4.60;74.54
66524;BME280;53350;52.210;5.160;2024-01-15T02:18:40;100323.69;;;4.53;74.95
66524;BME280;53350;52.210;5.160;2024-01-15T02:21:08;100319.47;;;4.50;75.42
66524;BME280;53350;52.210;5.160;2024-01-15T02:23:36;100327.94;;;4.48;75.50
66524;BME280;53350;52.210;5.160;2024-01-15T02:26:03;100329.59;;;4.43;75.64
66524;BME280;53350;52.210;5.160;2024-01-15T02:28:30;100327.94;;;4.43;76.26
66524;BME280;53350;52.210;5.160;2024-01-15T02:30:58;100327.06;;;4.44;76.32
66524;BME280;53350;52.210;5.160;2024-01-15T02:33:26;100323.69;;;4.45;76.83
66524;BME280;53350;52.210;5.160;2024-01-15T02:35:52;100313.47;;;4.45;76.98
66524;BME280;53350;52.210;5.160;2024-01-15T02:38:19;100318.59;;;4.47;77.33
66524;BME280;53350;52.210;5.160;2024-01-15T02:40:46;100316.88;;;4.47;77.24
66524;BME280;53350;52.210;5.160;2024-01-15T02:43:13;100319.47;;;4.50;77.63
66524;BME280;53350;52.210;5.160;2024-01-15T02:45:40;100318.63;;;4.58;77.22
66524;BME280;53350;52.210;5.160;2024-01-15T02:48:06;100309.28;;;4.61;77.36
66524;BME280;53350;52.210;5.160;2024-01-15T02:50:32;100316.09;;;4.62;77.26
66524;BME280;53350;52.210;5.160;2024-01-15T02:52:59;100311.84;;;4.61;77.35
66524;BME280;53350;52.210;5.160;2024-01-15T02:55:25;100311.84;;;4.63;77.11
66524;BME280;53350;52.210;5.160;2024-01-15T02:57:55;100310.13;;;4.63;77.15
66524;BME280;53350;52.210;5.160;2024-01-15T03:00:22;100310.13;;;4.62;77.21
66524;BME280;53350;52.210;5.160;2024-01-15T03:02:50;100303.34;;;4.61;77.21
66524;BME280;53350;52.210;5.160;2024-01-15T03:05:17;100300.78;;;4.61;77.31
66524;BME280;53350;52.210;5.160;2024-01-15T03:07:43;100300.78;;;4.62;77.23
66524;BME280;53350;52.210;5.160;2024-01-15T03:10:09;100302.47;;;4.63;77.06
66524;BME280;53350;52.210;5.160;2024-01-15T03:12:36;100297.38;;;4.63;77.28
66524;BME280;53350;52.210;5.160;2024-01-15T03:15:04;100300.81;;;4.65;77.41
66524;BME280;53350;52.210;5.160;2024-01-15T03:17:31;100304.19;;;4.70;77.80
66524;BME280;53350;52.210;5.160;2024-01-15T03:19:57;100292.31;;;4.71;77.40
66524;BME280;53350;52.210;5.160;2024-01-15T03:22:24;100293.16;;;4.73;77.68
66524;BME280;53350;52.210;5.160;2024-01-15T03:24:50;100297.44;;;4.79;77.41
66524;BME280;53350;52.210;5.160;2024-01-15T03:27:17;100315.28;;;4.77;77.19
66524;BME280;53350;52.210;5.160;2024-01-15T03:29:43;100326.31;;;4.68;76.80
66524;BME280;53350;52.210;5.160;2024-01-15T03:32:11;100325.47;;;4.69;77.46
66524;BME280;53350;52.210;5.160;2024-01-15T03:34:38;100311.84;;;4.69;77.32
66524;BME280;53350;52.210;5.160;2024-01-15T03:37:04;100299.97;;;4.69;77.75
66524;BME280;53350;52.210;5.160;2024-01-15T03:39:30;100294.00;;;4.72;77.19
66524;BME280;53350;52.210;5.160;2024-01-15T03:41:57;100292.31;;;4.74;77.26
66524;BME280;53350;52.210;5.160;2024-01-15T03:44:23;100283.84;;;4.78;77.45
66524;BME280;53350;52.210;5.160;2024-01-15T03:46:50;100283.84;;;4.83;77.18
66524;BME280;53350;52.210;5.160;2024-01-15T03:49:18;100276.19;;;4.87;77.00
66524;BME280;53350;52.210;5.160;2024-01-15T03:51:44;100282.16;;;4.91;76.98
66524;BME280;53350;52.210;5.160;2024-01-15T03:54:11;100276.19;;;4.89;76.24
66524;BME280;53350;52.210;5.160;2024-01-15T03:56:37;100279.56;;;4.83;76.31
66524;BME280;53350;52.210;5.160;2024-01-15T03:59:03;100269.38;;;4.82;76.09
66524;BME280;53350;52.210;5.160;2024-01-15T04:01:30;100267.66;;;4.76;75.95
66524;BME280;53350;52.210;5.160;2024-01-15T04:03:56;100270.19;;;4.72;75.98
66524;BME280;53350;52.210;5.160;2024-01-15T04:06:24;100272.75;;;4.70;75.82
66524;BME280;53350;52.210;5.160;2024-01-15T04:08:50;100258.28;;;4.70;76.10
66524;BME280;53350;52.210;5.160;2024-01-15T04:11:17;100259.16;;;4.69;75.70
66524;BME280;53350;52.210;5.160;2024-01-15T04:13:43;100254.00;;;4.63;75.79
66524;BME280;53350;52.210;5.160;2024-01-15T04:16:10;100233.59;;;4.46;75.45
66524;BME280;53350;52.210;5.160;2024-01-15T04:18:36;100254.84;;;4.56;75.53
66524;BME280;53350;52.210;5.160;2024-01-15T04:21:04;100254.84;;;4.55;75.56
66524;BME280;53350;52.210;5.160;2024-01-15T04:23:31;100256.53;;;4.51;75.41
66524;BME280;53350;52.210;5.160;2024-01-15T04:25:58;100249.72;;;4.51;75.55
66524;BME280;53350;52.210;5.160;2024-01-15T04:28:24;100249.72;;;4.53;75.53
66524;BME280;53350;52.210;5.160;2024-01-15T04:30:51;100241.25;;;4.52;75.26
66524;BME280;53350;52.210;5.160;2024-01-15T04:33:17;100241.25;;;4.51;75.42
66524;BME280;53350;52.210;5.160;2024-01-15T04:35:43;100249.72;;;4.51;75.90
66524;BME280;53350;52.210;5.160;2024-01-15T04:38:10;100243.78;;;4.54;75.81
66524;BME280;53350;52.210;5.160;2024-01-15T04:40:38;100244.63;;;4.56;75.66
66524;BME280;53350;52.210;5.160;2024-01-15T04:43:04;100246.34;;;4.60;75.61
66524;BME280;53350;52.210;5.160;2024-01-15T04:45:30;100242.13;;;4.64;75.60
66524;BME280;53350;52.210;5.160;2024-01-15T04:47:57;100254.88;;;4.64;75.50
66524;BME280;53350;52.210;5.160;2024-01-15T04:50:23;100253.19;;;4.67;75.48
66524;BME280;53350;52.210;5.160;2024-01-15T04:52:50;100235.31;;;4.64;75.20
66524;BME280;53350;52.210;5.160;2024-01-15T04:55:16;100231.09;;;4.71;75.52
66524;BME280;53350;52.210;5.160;2024-01-15T04:57:44;100226.81;;;4.70;75.82
66524;BME280;53350;52.210;5.160;2024-01-15T05:00:12;100215.75;;;4.65;75.57
66524;BME280;53350;52.210;5.160;2024-01-15T05:02:39;100219.19;;;4.68;75.45
66524;BME280;53350;52.210;5.160;2024-01-15T05:05:05;100221.72;;;4.70;75.21
66524;BME280;53350;52.210;5.160;2024-01-15T05:07:32;100225.13;;;4.70;75.04
66524;BME280;53350;52.210;5.160;2024-01-15T05:09:58;100223.44;;;4.71;74.72
66524;BME280;53350;52.210;5.160;2024-01-15T05:12:25;100217.47;;;4.70;75.28
66524;BME280;53350;52.210;5.160;2024-01-15T05:14:52;100212.38;;;4.72;75.19
66524;BME280;53350;52.210;5.160;2024-01-15T05:17:19;100213.22;;;4.71;75.08
66524;BME280;53350;52.210;5.160;2024-01-15T05:19:45;100214.06;;;4.70;75.36
66524;BME280;53350;52.210;5.160;2024-01-15T05:22:12;100214.06;;;4.73;75.40
66524;BME280;53350;52.210;5.160;2024-01-15T05:24:38;100210.69;;;4.74;75.73
66524;BME280;53350;52.210;5.160;2024-01-15T05:27:04;100224.28;;;4.78;75.59
66524;BME280;53350;52.210;5.160;2024-01-15T05:29:31;100218.34;;;4.79;75.63
66524;BME280;53350;52.210;5.160;2024-01-15T05:31:59;100226.00;;;4.80;75.54
66524;BME280;53350;52.210;5.160;2024-01-15T05:34:25;100215.78;;;4.82;75.80
66524;BME280;53350;52.210;5.160;2024-01-15T05:36:51;100223.44;;;4.82;75.73
66524;BME280;53350;52.210;5.160;2024-01-15T05:39:18;100219.22;;;4.81;75.79
66524;BME280;53350;52.210;5.160;2024-01-15T05:41:45;100220.03;;;4.83;75.74
66524;BME280;53350;52.210;5.160;2024-01-15T05:44:11;100211.56;;;4.85;76.08
66524;BME280;53350;52.210;5.160;2024-01-15T05:46:37;100215.78;;;4.88;76.14
66524;BME280;53350;52.210;5.160;2024-01-15T05:49:05;100225.16;;;4.92;76.14
66524;BME280;53350;52.210;5.160;2024-01-15T05:51:32;100235.34;;;4.94;75.98
66524;BME280;53350;52.210;5.160;2024-01-15T05:53:58;100247.28;;;4.92;76.16
66524;BME280;53350;52.210;5.160;2024-01-15T05:56:24;100239.63;;;4.92;75.77
66524;BME280;53350;52.210;5.160;2024-01-15T05:58:51;100226.81;;;4.76;75.65
66524;BME280;53350;52.210;5.160;2024-01-15T06:01:18;100228.53;;;4.86;75.68
66524;BME280;53350;52.210;5.160;2024-01-15T06:03:44;100244.72;;;4.85;75.76
66524;BME280;53350;52.210;5.160;2024-01-15T06:06:12;100227.69;;;4.83;75.15
66524;BME280;53350;52.210;5.160;2024-01-15T06:08:38;100207.28;;;4.80;75.33
66524;BME280;53350;52.210;5.160;2024-01-15T06:11:06;100215.78;;;4.79;75.65
66524;BME280;53350;52.210;5.160;2024-01-15T06:13:32;100208.97;;;4.75;75.84
66524;BME280;53350;52.210;5.160;2024-01-15T06:15:59;100220.00;;;4.70;75.74
66524;BME280;53350;52.210;5.160;2024-01-15T06:18:25;100223.44;;;4.66;75.80
66524;BME280;53350;52.210;5.160;2024-01-15T06:20:52;100219.16;;;4.65;76.02
66524;BME280;53350;52.210;5.160;2024-01-15T06:23:19;100217.47;;;4.64;75.59
66524;BME280;53350;52.210;5.160;2024-01-15T06:25:46;100217.47;;;4.64;75.53
66524;BME280;53350;52.210;5.160;2024-01-15T06:28:12;100201.31;;;4.61;75.92
66524;BME280;53350;52.210;5.160;2024-01-15T06:30:38;100207.25;;;4.57;75.93
66524;BME280;53350;52.210;5.160;2024-01-15T06:33:05;100208.09;;;4.51;75.69
66524;BME280;53350;52.210;5.160;2024-01-15T06:35:31;100208.91;;;4.47;75.91
66524;BME280;53350;52.210;5.160;2024-01-15T06:37:59;100205.53;;;4.46;76.08
66524;BME280;53350;52.210;5.160;2024-01-15T06:40:27;100208.09;;;4.46;75.96
66524;BME280;53350;52.210;5.160;2024-01-15T06:42:53;100203.81;;;4.45;76.05
66524;BME280;53350;52.210;5.160;2024-01-15T06:45:20;100199.56;;;4.46;75.94
66524;BME280;53350;52.210;5.160;2024-01-15T06:47:46;100200.44;;;4.45;76.13
66524;BME280;53350;52.210;5.160;2024-01-15T06:50:12;100197.88;;;4.45;75.61
66524;BME280;53350;52.210;5.160;2024-01-15T06:52:39;100197.84;;;4.40;75.33
66524;BME280;53350;52.210;5.160;2024-01-15T06:55:06;100197.84;;;4.37;76.09
66524;BME280;53350;52.210;5.160;2024-01-15T06:57:33;100221.66;;;4.34;76.15
66524;BME280;53350;52.210;5.160;2024-01-15T07:00:00;100231.84;;;4.36;76.35
66524;BME280;53350;52.210;5.160;2024-01-15T07:02:28;100230.16;;;4.37;75.94
66524;BME280;53350;52.210;5.160;2024-01-15T07:04:54;100243.72;;;4.25;76.10
66524;BME280;53350;52.210;5.160;2024-01-15T07:07:21;100233.47;;;4.17;76.54
66524;BME280;53350;52.210;5.160;2024-01-15T07:09:47;100228.34;;;4.12;76.87
66524;BME280;53350;52.210;5.160;2024-01-15T07:12:13;100224.09;;;4.10;77.09
66524;BME280;53350;52.210;5.160;2024-01-15T07:14:42;100231.78;;;4.13;77.32
66524;BME280;53350;52.210;5.160;2024-01-15T07:17:09;100226.69;;;4.16;77.22
66524;BME280;53350;52.210;5.160;2024-01-15T07:19:35;100226.69;;;4.19;76.99
66524;BME280;53350;52.210;5.160;2024-01-15T07:22:02;100230.97;;;4.23;77.31
66524;BME280;53350;52.210;5.160;2024-01-15T07:24:28;100218.22;;;4.25;77.33
66524;BME280;53350;52.210;5.160;2024-01-15T07:26:55;100220.78;;;4.28;77.21
66524;BME280;53350;52.210;5.160;2024-01-15T07:29:21;100208.88;;;4.31;77.08
66524;BME280;53350;52.210;5.160;2024-01-15T07:31:50;100210.59;;;4.32;77.06
66524;BME280;53350;52.210;5.160;2024-01-15T07:34:16;100225.88;;;4.34;76.76
66524;BME280;53350;52.210;5.160;2024-01-15T07:36:44;100219.09;;;4.38;77.21
66524;BME280;53350;52.210;5.160;2024-01-15T07:39:10;100230.16;;;4.35;76.94
66524;BME280;53350;52.210;5.160;2024-01-15T07:41:36;100223.34;;;4.34;76.95
66524;BME280;53350;52.210;5.160;2024-01-15T07:44:03;100218.22;;;4.35;77.23
66524;BME280;53350;52.210;5.160;2024-01-15T07:46:30;100224.22;;;4.38;77.03
66524;BME280;53350;52.210;5.160;2024-01-15T07:48:58;100218.22;;;4.35;77.07
66524;BME280;53350;52.210;5.160;2024-01-15T07:51:24;100213.97;;;4.31;76.95
66524;BME280;53350;52.210;5.160;2024-01-15T07:53:53;100213.13;;;4.28;76.51
66524;BME280;53350;52.210;5.160;2024-01-15T07:56:20;100214.78;;;4.26;77.09
66524;BME280;53350;52.210;5.160;2024-01-15T07:58:46;100215.66;;;4.23;77.04
66524;BME280;53350;52.210;5.160;2024-01-15T08:01:13;100214.78;;;4.23;77.34
66524;BME280;53350;52.210;5.160;2024-01-15T08:03:39;100213.13;;;4.23;77.06
66524;BME280;53350;52.210;5.160;2024-01-15T08:06:07;100209.69;;;4.24;77.27
66524;BME280;53350;52.210;5.160;2024-01-15T08:08:35;100214.78;;;4.24;77.01
66524;BME280;53350;52.210;5.160;2024-01-15T08:11:01;100217.34;;;4.26;76.93
66524;BME280;53350;52.210;5.160;2024-01-15T08:13:27;100225.03;;;4.27;77.23
66524;BME280;53350;52.210;5.160;2024-01-15T08:15:54;100235.25;;;4.32;77.23
66524;BME280;53350;52.210;5.160;2024-01-15T08:18:20;100253.09;;;4.35;76.84
66524;BME280;53350;52.210;5.160;2024-01-15T08:20:47;100257.31;;;4.28;76.35
66524;BME280;53350;52.210;5.160;2024-01-15T08:23:14;100250.47;;;4.21;76.48
66524;BME280;53350;52.210;5.160;2024-01-15T08:25:41;100239.41;;;4.11;76.69
66524;BME280;53350;52.210;5.160;2024-01-15T08:28:07;100239.34;;;4.05;77.08
66524;BME280;53350;52.210;5.160;2024-01-15T08:30:34;100239.34;;;4.05;77.44
66524;BME280;53350;52.210;5.160;2024-01-15T08:33:00;100229.16;;;4.07;77.32
66524;BME280;53350;52.210;5.160;2024-01-15T08:35:27;100218.16;;;4.09;77.46
66524;BME280;53350;52.210;5.160;2024-01-15T08:37:53;100211.38;;;4.13;77.20
66524;BME280;53350;52.210;5.160;2024-01-15T08:40:21;100218.16;;;4.15;76.83
66524;BME280;53350;52.210;5.160;2024-01-15T08:42:48;100216.47;;;4.11;76.52
66524;BME280;53350;52.210;5.160;2024-01-15T08:45:14;100213.88;;;4.05;76.81
66524;BME280;53350;52.210;5.160;2024-01-15T08:47:40;100225.78;;;4.05;77.20
66524;BME280;53350;52.210;5.160;2024-01-15T08:50:07;100219.84;;;4.04;77.06
66524;BME280;53350;52.210;5.160;2024-01-15T08:52:35;100237.69;;;4.06;77.50
66524;BME280;53350;52.210;5.160;2024-01-15T08:55:03;100247.00;;;4.08;78.07
66524;BME280;53350;52.210;5.160;2024-01-15T08:57:31;100248.72;;;4.06;77.51
66524;BME280;53350;52.210;5.160;2024-01-15T08:59:56;100235.09;;;4.01;77.19
66524;BME280;53350;52.210;5.160;2024-01-15T09:02:23;100235.06;;;3.98;77.24
66524;BME280;53350;52.210;5.160;2024-01-15T09:04:50;100229.97;;;3.96;77.27
66524;BME280;53350;52.210;5.160;2024-01-15T09:07:17;100228.25;;;3.94;77.60
66524;BME280;53350;52.210;5.160;2024-01-15T09:09:44;100229.97;;;3.96;77.58
66524;BME280;53350;52.210;5.160;2024-01-15T09:12:10;100233.38;;;3.95;77.50
66524;BME280;53350;52.210;5.160;2024-01-15T09:14:42;100227.41;;;3.93;77.53
66524;BME280;53350;52.210;5.160;2024-01-15T09:17:08;100224.03;;;3.96;77.70
66524;BME280;53350;52.210;5.160;2024-01-15T09:19:34;100222.34;;;3.99;78.00
66524;BME280;53350;52.210;5.160;2024-01-15T09:22:01;100224.91;;;4.03;77.75
66524;BME280;53350;52.210;5.160;2024-01-15T09:24:27;100232.59;;;4.07;77.91
66524;BME280;53350;52.210;5.160;2024-01-15T09:26:54;100231.78;;;4.13;78.23
66524;BME280;53350;52.210;5.160;2024-01-15T09:29:20;100238.56;;;4.17;78.21
66524;BME280;53350;52.210;5.160;2024-01-15T09:31:50;100233.50;;;4.20;78.34
66524;BME280;53350;52.210;5.160;2024-01-15T09:34:17;100239.44;;;4.24;78.42
66524;BME280;53350;52.210;5.160;2024-01-15T09:36:43;100233.50;;;4.25;77.97
66524;BME280;53350;52.210;5.160;2024-01-15T09:39:10;100226.69;;;4.25;78.02
66524;BME280;53350;52.210;5.160;2024-01-15T09:41:36;100228.38;;;4.18;77.79
66524;BME280;53350;52.210;5.160;2024-01-15T09:44:04;100228.38;;;4.18;78.26
66524;BME280;53350;52.210;5.160;2024-01-15T09:46:30;100224.13;;;4.19;78.34
66524;BME280;53350;52.210;5.160;2024-01-15T09:48:59;100212.22;;;4.13;78.21
66524;BME280;53350;52.210;5.160;2024-01-15T09:51:28;100218.22;;;4.25;78.28
66524;BME280;53350;52.210;5.160;2024-01-15T09:53:57;100229.28;;;4.33;78.44
66524;BME280;53350;52.210;5.160;2024-01-15T09:56:24;100226.78;;;4.47;78.21
66524;BME280;53350;52.210;5.160;2024-01-15T09:58:50;100233.59;;;4.49;78.32
66524;BME280;53350;52.210;5.160;2024-01-15T10:01:20;100226.78;;;4.55;78.30
66524;BME280;53350;52.210;5.160;2024-01-15T10:03:46;100226.81;;;4.61;77.86
66524;BME280;53350;52.210;5.160;2024-01-15T10:06:16;100238.75;;;4.68;77.76
66524;BME280;53350;52.210;5.160;2024-01-15T10:08:47;100247.25;;;4.76;77.96
66524;BME280;53350;52.210;5.160;2024-01-15T10:11:14;100242.16;;;4.81;76.74
66524;BME280;53350;52.210;5.160;2024-01-15T10:13:42;100242.13;;;4.76;75.95
66524;BME280;53350;52.210;5.160;2024-01-15T10:16:09;100245.50;;;4.63;75.99
66524;BME280;53350;52.210;5.160;2024-01-15T10:18:36;100250.59;;;4.50;76.69
66524;BME280;53350;52.210;5.160;2024-01-15T10:21:05;100255.66;;;4.46;76.74
66524;BME280;53350;52.210;5.160;2024-01-15T10:23:33;100252.28;;;4.45;77.29
66524;BME280;53350;52.210;5.160;2024-01-15T10:26:01;100257.38;;;4.50;77.09
66524;BME280;53350;52.210;5.160;2024-01-15T10:28:28;100248.88;;;4.49;77.61
66524;BME280;53350;52.210;5.160;2024-01-15T10:30:57;100247.19;;;4.56;77.98
66524;BME280;53350;52.210;5.160;2024-01-15T10:33:24;100235.31;;;4.60;77.42
66524;BME280;53350;52.210;5.160;2024-01-15T10:35:53;100241.25;;;4.65;77.70
66524;BME280;53350;52.210;5.160;2024-01-15T10:38:20;100242.97;;;4.70;77.47
66524;BME280;53350;52.210;5.160;2024-01-15T10:40:50;100254.06;;;4.79;77.59
66524;BME280;53350;52.210;5.160;2024-01-15T10:43:17;100248.97;;;4.83;77.57
66524;BME280;53350;52.210;5.160;2024-01-15T10:45:44;100248.97;;;4.86;77.32
66524;BME280;53350;52.210;5.160;2024-01-15T10:48:11;100259.16;;;4.83;77.12
66524;BME280;53350;52.210;5.160;2024-01-15T10:50:38;100282.16;;;4.91;77.18
66524;BME280;53350;52.210;5.160;2024-01-15T10:53:04;100271.09;;;4.95;76.29
66524;BME280;53350;52.210;5.160;2024-01-15T10:55:31;100275.34;;;4.81;75.37
66524;BME280;53350;52.210;5.160;2024-01-15T10:58:00;100282.94;;;4.70;75.44
66524;BME280;53350;52.210;5.160;2024-01-15T11:00:26;100276.97;;;4.60;75.63
66524;BME280;53350;52.210;5.160;2024-01-15T11:02:54;100291.41;;;4.57;76.03
66524;BME280;53350;52.210;5.160;2024-01-15T11:05:21;100288.88;;;4.53;75.60
66524;BME280;53350;52.210;5.160;2024-01-15T11:07:48;100288.84;;;4.50;75.97
66524;BME280;53350;52.210;5.160;2024-01-15T11:10:39;100282.88;;;4.48;75.63
66524;BME280;53350;52.210;5.160;2024-01-15T11:13:10;100286.31;;;4.53;75.93
66524;BME280;53350;52.210;5.160;2024-01-15T11:15:59;100293.09;;;4.53;75.88
66524;BME280;53350;52.210;5.160;2024-01-15T11:18:27;100291.41;;;4.57;75.31
66524;BME280;53350;52.210;5.160;2024-01-15T11:21:23;100270.19;;;4.59;75.57
66524;BME280;53350;52.210;5.160;2024-01-15T11:23:51;100271.03;;;4.66;75.49
66524;BME280;53350;52.210;5.160;2024-01-15T11:26:32;100277.00;;;4.71;75.99
66524;BME280;53350;52.210;5.160;2024-01-15T11:29:02;100269.38;;;4.77;75.38
66524;BME280;53350;52.210;5.160;2024-01-15T11:31:29;100283.84;;;4.83;75.23
66524;BME280;53350;52.210;5.160;2024-01-15T11:34:16;100282.13;;;4.86;74.89
66524;BME280;53350;52.210;5.160;2024-01-15T11:37:01;100277.91;;;4.85;75.07
66524;BME280;53350;52.210;5.160;2024-01-15T11:39:40;100288.09;;;4.88;74.67
66524;BME280;53350;52.210;5.160;2024-01-15T11:42:08;100296.59;;;4.92;75.04
66524;BME280;53350;52.210;5.160;2024-01-15T11:44:37;100288.94;;;4.94;74.86
66524;BME280;53350;52.210;5.160;2024-01-15T11:47:05;100289.81;;;4.91;74.78
66524;BME280;53350;52.210;5.160;2024-01-15T11:49:51;100297.44;;;4.88;74.41
66524;BME280;53350;52.210;5.160;2024-01-15T11:52:21;100296.59;;;4.84;74.72
66524;BME280;53350;52.210;5.160;2024-01-15T11:54:54;100300.84;;;4.84;74.91
66524;BME280;53350;52.210;5.160;2024-01-15T11:57:40;100295.75;;;4.85;75.05
66524;BME280;53350;52.210;5.160;2024-01-15T12:00:10;100299.16;;;4.84;75.15
66524;BME280;53350;52.210;5.160;2024-01-15T12:02:38;100300.00;;;4.85;74.93
66524;BME280;53350;52.210;5.160;2024-01-15T12:05:05;100299.16;;;4.83;75.01
66524;BME280;53350;52.210;5.160;2024-01-15T12:07:33;100294.88;;;4.85;74.95
66524;BME280;53350;52.210;5.160;2024-01-15T12:09:59;100305.13;;;4.91;74.80
66524;BME280;53350;52.210;5.160;2024-01-15T12:12:33;100294.09;;;4.97;74.86
66524;BME280;53350;52.210;5.160;2024-01-15T12:15:04;100305.97;;;5.02;74.91
66524;BME280;53350;52.210;5.160;2024-01-15T12:17:32;100310.25;;;5.10;74.55
66524;BME280;53350;52.210;5.160;2024-01-15T12:19:58;100298.34;;;5.18;74.08
66524;BME280;53350;52.210;5.160;2024-01-15T12:22:25;100298.34;;;5.21;74.18
66524;BME280;53350;52.210;5.160;2024-01-15T12:24:52;100325.59;;;5.23;73.73
66524;BME280;53350;52.210;5.160;2024-01-15T12:27:19;100358.78;;;5.17;74.30
66524;BME280;53350;52.210;5.160;2024-01-15T12:29:46;100343.44;;;5.08;73.77
66524;BME280;53350;52.210;5.160;2024-01-15T12:32:12;100352.75;;;4.94;73.39
66524;BME280;53350;52.210;5.160;2024-01-15T12:34:40;100358.66;;;4.74;73.44
66524;BME280;53350;52.210;5.160;2024-01-15T12:37:06;100353.50;;;4.62;73.58
66524;BME280;53350;52.210;5.160;2024-01-15T12:39:33;100344.09;;;4.55;73.93
66524;BME280;53350;52.210;5.160;2024-01-15T12:42:00;100320.28;;;4.46;74.24
66524;BME280;53350;52.210;5.160;2024-01-15T12:44:27;100321.94;;;4.38;74.19
66524;BME280;53350;52.210;5.160;2024-01-15T12:46:54;100324.47;;;4.33;74.54
66524;BME280;53350;52.210;5.160;2024-01-15T12:49:21;100332.13;;;4.33;74.65
66524;BME280;53350;52.210;5.160;2024-01-15T12:51:53;100336.38;;;4.34;74.76
66524;BME280;53350;52.210;5.160;2024-01-15T12:54:20;100340.59;;;4.31;74.35
66524;BME280;53350;52.210;5.160;2024-01-15T12:56:46;100349.97;;;4.33;74.83
66524;BME280;53350;52.210;5.160;2024-01-15T12:59:13;100350.81;;;4.35;74.87
66524;BME280;53350;52.210;5.160;2024-01-15T13:01:39;100344.91;;;4.43;74.78